createdAt,value
2018-06-29T00:02:33.885Z,557.57
2018-06-29T00:05:22.343Z,554.33
2018-06-29T00:08:10.441Z,558.33
2018-06-29T00:10:58.755Z,557.30
2018-06-29T00:13:49.755Z,527.37
2018-06-29T00:16:36.202Z,518.70
2018-06-29T00:19:26.998Z,564.50
2018-06-29T00:22:14.881Z,552.77
2018-06-29T00:25:07.301Z,578.40
2018-06-29T00:27:54.798Z,581.27
2018-06-29T00:30:41.257Z,585.60
2018-06-29T00:33:25.248Z,565.73
2018-06-29T00:36:06.901Z,571.17
2018-06-29T00:38:55.095Z,562.03
2018-06-29T00:41:37.044Z,491.40
2018-06-29T00:44:24.622Z,522.67
2018-06-29T00:47:12.521Z,587.33
2018-06-29T00:50:01.799Z,506.20
2018-06-29T00:52:47.147Z,475.77
2018-06-29T00:55:31.882Z,842.20
2018-06-29T00:58:16.360Z,999.10
2018-06-29T01:01:03.847Z,665.23
2018-06-29T01:03:52.616Z,530.13
2018-06-29T01:06:36.998Z,525.70
2018-06-29T01:09:26.206Z,536.90
2018-06-29T01:12:14.982Z,547.70
2018-06-29T01:15:03.659Z,646.47
2018-06-29T01:17:48.481Z,582.40
2018-06-29T01:20:31.126Z,536.17
2018-06-29T01:23:15.657Z,503.70
2018-06-29T02:58:10.602Z,656.60
2018-06-29T03:00:58.609Z,628.73
2018-06-29T03:03:41.817Z,702.57
2018-06-29T03:06:30.466Z,617.90
2018-06-29T03:09:17.763Z,583.37
2018-06-29T03:11:59.175Z,562.37
2018-06-29T03:14:42.197Z,596.63
2018-06-29T03:17:26.862Z,574.43
2018-06-29T04:34:28.614Z,645.23
2018-06-29T04:37:23.832Z,688.60
2018-06-29T04:40:08.512Z,636.17
2018-06-29T04:42:51.816Z,668.17
2018-06-29T04:45:33.976Z,582.77
2018-06-29T04:48:16.071Z,464.67
2018-06-29T04:51:02.230Z,281.23
2018-06-29T04:53:47.533Z,414.13
2018-06-29T04:56:29.672Z,550.20
2018-06-29T04:59:14.529Z,469.23
2018-06-29T05:02:04.135Z,543.03
2018-06-29T05:04:47.758Z,538.90
2018-06-29T05:07:31.318Z,455.87
2018-06-29T05:10:16.613Z,505.60
2018-06-29T05:12:57.111Z,498.23
2018-06-29T05:15:44.113Z,622.97
2018-06-29T05:18:33.939Z,903.33
2018-06-29T05:21:18.238Z,464.87
2018-06-29T05:24:13.792Z,522.57
2018-06-29T05:26:55.371Z,340.20
2018-06-29T05:29:42.069Z,665.17
2018-06-29T05:32:26.074Z,741.60
2018-06-29T05:35:21.190Z,982.80
2018-06-29T05:38:05.772Z,763.67
2018-06-29T05:40:49.816Z,586.47
2018-06-29T05:43:34.149Z,605.80
2018-06-29T05:49:05.111Z,281.67
2018-06-29T05:51:49.332Z,349.53
2018-06-29T05:54:31.731Z,404.27
2018-06-29T05:57:14.771Z,258.37
2018-06-29T05:59:58.692Z,355.90
2018-06-29T06:02:44.254Z,225.60
2018-06-29T06:05:33.314Z,255.70
2018-06-29T06:08:14.912Z,220.17
2018-06-29T06:10:55.693Z,291.80
2018-06-29T06:13:36.474Z,205.10
2018-06-29T06:16:19.575Z,490.60
2018-06-29T06:19:10.495Z,572.97
2018-06-29T06:21:56.267Z,745.47
2018-06-29T06:24:37.493Z,909.37
2018-06-29T06:27:18.532Z,999.90
2018-06-29T06:29:58.280Z,745.60
2018-06-29T06:32:39.233Z,945.40
2018-06-29T06:35:24.555Z,638.60
2018-06-29T06:38:08.675Z,713.27
2018-06-29T06:40:51.403Z,666.50
2018-06-29T06:43:29.660Z,751.97
2018-06-29T06:46:12.395Z,999.90
2018-06-29T06:48:52.132Z,999.90
2018-06-29T06:51:32.413Z,419.07
2018-06-29T06:54:15.194Z,657.60
2018-06-29T06:56:54.552Z,497.93
2018-06-29T06:59:37.995Z,481.43
2018-06-29T07:02:20.339Z,883.03
2018-06-29T07:05:03.357Z,984.00
2018-06-29T07:07:41.589Z,878.20
2018-06-29T07:10:22.740Z,723.20
2018-06-29T07:13:06.416Z,691.60
2018-06-29T07:15:44.754Z,425.90
2018-06-29T07:18:26.934Z,484.03
2018-06-29T07:21:10.954Z,388.73
2018-06-29T07:23:55.838Z,956.57
2018-06-29T07:26:47.538Z,982.23
2018-06-29T07:29:34.699Z,758.77
2018-06-29T07:32:18.699Z,753.97
2018-06-29T07:35:06.455Z,802.70
2018-06-29T07:37:53.171Z,652.67
2018-06-29T07:40:39.171Z,989.23
2018-06-29T07:43:20.495Z,157.03
2018-06-29T07:46:03.771Z,846.13
2018-06-29T07:48:48.619Z,791.97
2018-06-29T07:51:29.576Z,215.37
2018-06-29T07:54:21.652Z,486.00
2018-06-29T07:57:03.775Z,889.67
2018-06-29T07:59:49.600Z,944.00
2018-06-29T08:02:35.823Z,973.60
2018-06-29T08:05:21.653Z,714.70
2018-06-29T08:08:07.870Z,964.97
2018-06-29T08:10:51.700Z,109.87
2018-06-29T08:13:37.813Z,569.83
2018-06-29T08:16:19.954Z,849.40
2018-06-29T08:19:03.592Z,999.90
2018-06-29T08:21:48.995Z,999.90
2018-06-29T08:24:34.053Z,999.90
2018-06-29T08:27:18.111Z,761.00
2018-06-29T08:30:04.935Z,702.90
2018-06-29T08:32:54.655Z,904.80
2018-06-29T08:35:43.936Z,831.77
2018-06-29T08:38:28.893Z,826.30
2018-06-29T08:41:11.753Z,315.73
2018-06-29T08:43:54.475Z,722.13
2018-06-29T10:09:44.041Z,85.60
2018-06-29T10:12:28.922Z,55.92
2018-06-29T10:15:10.382Z,81.85
2018-06-29T10:17:50.621Z,147.50
2018-06-29T10:20:31.848Z,78.20
2018-06-29T10:23:19.739Z,125.07
2018-06-29T10:26:06.185Z,101.27
2018-06-29T10:28:46.241Z,91.10
2018-06-29T11:21:52.501Z,104.05
2018-06-29T11:24:38.385Z,94.75
2018-06-29T11:27:18.382Z,90.32
2018-06-29T11:30:01.584Z,121.70
2018-06-29T11:32:47.217Z,94.90
2018-06-29T11:35:29.380Z,92.90
2018-06-29T11:38:10.384Z,76.28
2018-06-29T11:40:51.227Z,133.18
2018-06-29T11:43:30.840Z,123.90
2018-06-29T11:46:13.741Z,146.47
2018-06-29T11:48:58.516Z,138.97
2018-06-29T11:51:44.561Z,160.18
2018-06-29T11:54:28.259Z,172.47
2018-06-29T11:57:14.529Z,172.60
2018-06-29T11:59:55.398Z,203.75
2018-06-29T12:02:43.627Z,289.95
2018-06-29T12:05:22.682Z,223.45
2018-06-29T12:08:04.136Z,165.70
2018-06-29T12:10:45.890Z,131.45
2018-06-29T12:13:30.283Z,99.77
2018-06-29T12:16:12.979Z,173.32
2018-06-29T12:18:53.223Z,259.80
2018-06-29T12:21:34.219Z,261.62
2018-06-29T12:24:15.807Z,153.42
2018-06-29T13:50:02.371Z,194.50
2018-06-29T13:52:50.259Z,272.73
2018-06-29T13:55:32.890Z,341.50
2018-06-29T13:58:14.558Z,182.82
2018-06-29T14:00:54.854Z,249.05
2018-06-29T14:03:34.418Z,335.68
2018-06-29T14:06:18.473Z,307.05
2018-06-29T14:09:08.375Z,289.60
2018-06-29T14:11:48.873Z,169.65
2018-06-29T14:14:32.830Z,114.55
2018-06-29T14:17:17.471Z,126.90
2018-06-29T14:20:02.448Z,171.28
2018-06-29T14:22:43.891Z,96.75
2018-06-29T14:25:29.878Z,155.60
2018-06-29T14:28:11.025Z,128.65
2018-06-29T14:30:54.814Z,137.65
2018-06-29T14:33:34.991Z,117.72
2018-06-29T14:36:19.552Z,63.05
2018-06-29T14:39:00.099Z,133.63
2018-06-29T14:41:41.229Z,135.85
2018-06-29T14:44:23.451Z,65.55
2018-06-29T15:16:59.693Z,35.60
2018-06-29T15:19:38.932Z,41.10
2018-06-29T15:22:20.191Z,34.92
2018-06-29T15:25:02.431Z,39.70
2018-06-29T15:27:44.594Z,47.00
2018-06-29T15:30:24.914Z,45.55
2018-06-29T15:33:06.856Z,45.23
2018-06-29T15:35:47.040Z,39.65
2018-06-29T15:38:28.122Z,56.40
2018-06-29T15:41:12.395Z,43.78
2018-06-29T15:43:58.735Z,38.67
2018-06-29T17:24:47.114Z,69.75
2018-06-29T17:27:34.781Z,75.30
2018-06-29T17:30:17.694Z,66.30
2018-06-29T17:33:02.615Z,83.45
2018-06-29T17:35:42.153Z,97.75
2018-06-29T17:38:25.391Z,90.57
2018-06-29T17:41:10.894Z,82.40
2018-06-29T17:43:53.291Z,99.97
2018-06-29T17:46:40.996Z,83.15
2018-06-29T17:49:20.031Z,91.37
2018-06-29T17:52:09.156Z,94.67
2018-06-29T17:54:53.649Z,88.55
2018-06-29T17:57:35.055Z,101.90
2018-06-29T18:00:16.271Z,110.08
2018-06-29T18:02:57.292Z,104.83
2018-06-29T18:05:32.537Z,106.00
2018-06-29T18:08:12.163Z,99.10
2018-06-29T18:10:50.946Z,91.67
2018-06-29T18:13:30.041Z,87.22
2018-06-29T18:16:08.933Z,77.08
2018-06-29T18:18:51.281Z,69.05
2018-06-29T18:21:42.261Z,68.65
2018-06-29T18:24:25.205Z,64.97
2018-06-29T18:27:06.066Z,71.50
2018-06-29T18:29:49.153Z,72.70
2018-06-29T18:32:30.256Z,80.32
2018-06-29T19:50:19.885Z,322.77
2018-06-29T19:53:08.739Z,165.03
2018-06-29T19:55:47.354Z,108.07
2018-06-29T19:58:26.832Z,324.20
2018-06-29T20:01:06.171Z,401.93
2018-06-29T20:03:46.739Z,668.93
2018-06-29T20:06:27.392Z,675.87
2018-06-29T20:09:08.612Z,662.80
2018-06-29T20:11:51.674Z,761.00
2018-06-29T20:14:32.893Z,836.70
2018-06-29T20:17:11.716Z,775.17
2018-06-29T20:19:55.634Z,725.50
2018-06-29T20:22:36.551Z,657.37
2018-06-29T20:25:20.411Z,477.87
2018-06-29T20:28:10.533Z,357.83
2018-06-29T20:30:59.795Z,309.33
2018-06-29T20:33:42.116Z,232.70
2018-06-29T20:36:24.911Z,224.63
2018-06-29T20:39:08.471Z,370.20
2018-06-29T21:50:31.812Z,964.37
2018-06-29T21:53:13.561Z,859.93
2018-06-29T21:55:54.993Z,852.23
2018-06-29T21:58:39.532Z,981.77
2018-06-29T22:01:22.151Z,999.90
2018-06-29T22:04:01.361Z,844.53
2018-06-29T22:06:43.140Z,583.23
2018-06-29T22:09:22.136Z,553.53
2018-06-29T22:34:01.538Z,741.67
2018-06-29T22:36:47.943Z,538.33
2018-06-29T22:39:29.158Z,377.70
2018-06-29T22:42:11.739Z,295.63
2018-06-29T22:44:57.021Z,246.10
2018-06-29T22:47:37.756Z,257.97
2018-06-29T22:50:21.359Z,515.77
2018-06-29T22:53:02.582Z,694.80
2018-06-29T22:55:45.538Z,821.20
2018-06-29T22:58:31.480Z,929.03
2018-06-29T23:01:12.674Z,977.80
2018-06-29T23:04:00.539Z,999.90
2018-06-29T23:06:42.958Z,999.90
2018-06-29T23:09:24.767Z,999.90
2018-06-29T23:12:09.977Z,999.90
2018-06-29T23:14:54.583Z,999.90
2018-06-29T23:17:35.805Z,999.90
2018-06-29T23:20:17.283Z,999.90
2018-06-29T23:23:02.160Z,999.90
2018-06-29T23:25:42.485Z,999.90
2018-06-29T23:28:25.981Z,999.90
2018-06-29T23:31:09.044Z,999.90
2018-06-29T23:33:49.700Z,999.07
2018-06-29T23:36:30.857Z,984.73
2018-06-29T23:39:17.162Z,946.00
2018-06-29T23:41:59.945Z,991.47
2018-06-29T23:44:42.137Z,975.63
2018-06-29T23:47:26.400Z,999.90
2018-06-29T23:50:08.083Z,984.57
2018-06-29T23:52:48.240Z,999.90
2018-06-29T23:55:28.621Z,999.90
2018-06-29T23:58:12.121Z,999.90
